Time;durP1;ratioP1;P1;durP2;ratioP2;P2;SDS_P1;SDS_P2;PMS_P1;PMS_P2;Temp;Humidity;BMP_temperature;BMP_pressure;BME280_temperature;BME280_humidity;BME280_pressure;Samples;Min_cycle;Max_cycle;Signal;HPM_P1;HPM_P2
2022/04/23 00:00:11;;;;;;;;;;;12.20;69.10;;;;;;2092827;28;19957;-94
2022/04/23 00:01:12;;;;;;;;;;;12.20;69.50;;;;;;2086293;28;19925;-95
2022/04/23 00:02:13;;;;;;;;;;;12.20;69.30;;;;;;2092687;28;19908;-95
2022/04/23 00:03:13;;;;;;;;;;;12.20;69.40;;;;;;2092437;28;20399;-96
2022/04/23 00:04:14;;;;;;;;;;;12.20;69.40;;;;;;2093464;28;19971;-94
2022/04/23 00:05:14;;;;;;;;;;;12.20;69.40;;;;;;2097744;28;19936;-95
2022/04/23 00:06:15;;;;;;;;;;;12.20;69.70;;;;;;2089901;28;20013;-96
2022/04/23 00:07:15;;;;;;;;;;;12.20;69.50;;;;;;2081986;28;19902;-94
2022/04/23 00:08:16;;;;;;;;;;;12.20;69.80;;;;;;2068938;28;19914;-96
2022/04/23 00:09:16;;;;;;;;;;;12.20;69.80;;;;;;2090048;28;19909;-94
2022/04/23 00:10:17;;;;;;;;;;;12.10;69.60;;;;;;2098613;28;19917;-94
2022/04/23 00:11:18;;;;;;;;;;;12.20;69.70;;;;;;2089668;28;19917;-94
2022/04/23 00:12:19;;;;;;;;;;;12.20;70.00;;;;;;2105041;28;19912;-94
2022/04/23 00:13:19;;;;;;;;;;;12.20;70.00;;;;;;2113073;28;20386;-94
2022/04/23 00:14:20;;;;;;;;;;;12.10;69.80;;;;;;2108452;28;19912;-94
2022/04/23 00:15:23;;;;;;;;;;;12.10;70.20;;;;;;2092971;28;19913;-92
2022/04/23 00:16:24;;;;;;;;;;;12.10;70.20;;;;;;2075069;28;19924;-95
2022/04/23 00:17:24;;;;;;;;;;;12.10;70.30;;;;;;2076486;28;19909;-92
2022/04/23 00:18:25;;;;;;;;;;;12.10;70.60;;;;;;2076979;28;20012;-94
2022/04/23 00:19:26;;;;;;;;;;;12.10;70.60;;;;;;2068456;28;19921;-94
2022/04/23 00:20:29;;;;;;;;;;;12.10;70.30;;;;;;2083128;28;19924;-94
2022/04/23 00:21:30;;;;;;;;;;;12.10;70.60;;;;;;2075043;28;19925;-94
2022/04/23 00:22:31;;;;;;;;;;;12.10;70.50;;;;;;2074838;28;19924;-94
2022/04/23 00:23:33;;;;;;;;;;;12.00;70.40;;;;;;2091854;28;19963;-95
2022/04/23 00:24:34;;;;;;;;;;;12.10;70.60;;;;;;2108057;28;19908;-93
2022/04/23 00:25:40;;;;;;;;;;;12.00;70.60;;;;;;2091752;28;19928;-94
2022/04/23 00:26:40;;;;;;;;;;;12.00;70.70;;;;;;2091809;28;19923;-95
2022/04/23 00:27:41;;;;;;;;;;;12.10;70.70;;;;;;2091536;28;19916;-94
2022/04/23 00:28:42;;;;;;;;;;;12.00;70.80;;;;;;2093527;28;19913;-94
2022/04/23 00:29:42;;;;;;;;;;;12.00;70.50;;;;;;2099979;28;20345;-95
2022/04/23 00:30:44;;;;;;;;;;;12.00;70.70;;;;;;2091364;28;19925;-95
2022/04/23 00:31:45;;;;;;;;;;;12.00;70.70;;;;;;2093213;28;20359;-95
2022/04/23 00:32:46;;;;;;;;;;;12.00;70.60;;;;;;2092477;28;19961;-93
2022/04/23 00:33:46;;;;;;;;;;;12.00;71.00;;;;;;2092248;28;19908;-93
2022/04/23 00:34:47;;;;;;;;;;;11.90;71.10;;;;;;2091492;28;19913;-96
2022/04/23 00:35:50;;;;;;;;;;;11.90;71.30;;;;;;2091777;28;20256;-93
2022/04/23 00:36:51;;;;;;;;;;;11.90;71.10;;;;;;2100013;28;19916;-95
2022/04/23 00:37:52;;;;;;;;;;;11.90;70.90;;;;;;2099770;28;19947;-94
2022/04/23 00:38:53;;;;;;;;;;;11.90;71.20;;;;;;2101722;28;19901;-92
2022/04/23 00:39:53;;;;;;;;;;;11.90;70.90;;;;;;2102821;28;19900;-87
2022/04/23 00:40:55;;;;;;;;;;;11.90;70.80;;;;;;2105945;28;19913;-94
2022/04/23 00:41:59;;;;;;;;;;;11.90;71.20;;;;;;2111975;28;19959;-94
2022/04/23 00:43:01;;;;;;;;;;;11.90;71.50;;;;;;2102053;28;19901;-83
2022/04/23 00:44:01;;;;;;;;;;;11.80;71.20;;;;;;2093236;28;19898;-82
2022/04/23 00:45:02;;;;;;;;;;;11.90;71.10;;;;;;2097386;28;19967;-95
2022/04/23 00:46:03;;;;;;;;;;;11.80;71.10;;;;;;2083534;28;20016;-94
2022/04/23 00:47:04;;;;;;;;;;;11.80;71.20;;;;;;2084072;28;19959;-95
2022/04/23 00:48:05;;;;;;;;;;;11.80;71.10;;;;;;2099786;28;19919;-96
2022/04/23 00:49:08;;;;;;;;;;;11.80;71.20;;;;;;2095900;28;19919;-95
2022/04/23 00:50:09;;;;;;;;;;;11.80;71.40;;;;;;2094926;28;19933;-93
2022/04/23 00:51:12;;;;;;;;;;;11.80;71.60;;;;;;2093995;28;19909;-96
2022/04/23 00:52:13;;;;;;;;;;;11.80;71.60;;;;;;2101639;28;19923;-81
2022/04/23 00:53:13;;;;;;;;;;;11.80;71.60;;;;;;2103613;28;19936;-95
2022/04/23 00:54:14;;;;;;;;;;;11.70;71.90;;;;;;2101334;28;19912;-95
2022/04/23 00:55:14;;;;;;;;;;;11.80;71.90;;;;;;2109472;28;19919;-95
2022/04/23 00:56:16;;;;;;;;;;;11.70;72.50;;;;;;2108948;28;19912;-95
2022/04/23 00:57:16;;;;;;;;;;;11.70;72.30;;;;;;2105008;28;20386;-96
2022/04/23 00:58:17;;;;;;;;;;;11.70;71.90;;;;;;2100454;28;19956;-96
2022/04/23 00:59:17;;;;;;;;;;;11.70;71.90;;;;;;2087886;28;20306;-94
2022/04/23 01:00:18;;;;;;;;;;;11.70;72.30;;;;;;2091258;28;19921;-95
2022/04/23 01:01:23;;;;;;;;;;;11.70;72.20;;;;;;2099109;28;19917;-95
2022/04/23 01:02:24;;;;;;;;;;;11.70;72.10;;;;;;2093072;28;19908;-94
2022/04/23 01:03:25;;;;;;;;;;;11.70;72.10;;;;;;2079317;28;19914;-96
2022/04/23 01:04:28;;;;;;;;;;;11.70;72.20;;;;;;2076328;28;19914;-95
2022/04/23 01:05:30;;;;;;;;;;;11.70;72.20;;;;;;2085040;28;19926;-96
2022/04/23 01:06:33;;;;;;;;;;;11.70;72.10;;;;;;2093833;28;19921;-93
2022/04/23 01:07:38;;;;;;;;;;;11.70;72.50;;;;;;2087309;28;20044;-96
2022/04/23 01:08:38;;;;;;;;;;;11.70;72.30;;;;;;2087183;28;19910;-96
2022/04/23 01:09:41;;;;;;;;;;;11.60;72.50;;;;;;2100008;28;20418;-95
2022/04/23 01:10:42;;;;;;;;;;;11.60;72.80;;;;;;2086104;28;19913;-95
2022/04/23 01:11:43;;;;;;;;;;;11.60;72.60;;;;;;2077374;28;20469;-96
2022/04/23 01:12:47;;;;;;;;;;;11.60;73.00;;;;;;2069266;28;20013;-96
2022/04/23 01:13:47;;;;;;;;;;;11.60;72.60;;;;;;2085398;28;20434;-96
2022/04/23 01:14:58;;;;;;;;;;;11.60;72.90;;;;;;2094047;28;19913;-94
2022/04/23 01:15:59;;;;;;;;;;;11.60;72.90;;;;;;2093828;28;20010;-95
2022/04/23 01:17:00;;;;;;;;;;;11.60;72.80;;;;;;2102850;28;20011;-96
2022/04/23 01:18:01;;;;;;;;;;;11.60;72.70;;;;;;2093770;28;19913;-95
2022/04/23 01:19:02;;;;;;;;;;;11.60;72.90;;;;;;2089793;28;19918;-96
2022/04/23 01:20:14;;;;;;;;;;;11.60;73.00;;;;;;2092280;28;19948;-95
2022/04/23 01:21:15;;;;;;;;;;;11.60;73.00;;;;;;2102375;28;19979;-94
2022/04/23 01:22:15;;;;;;;;;;;11.50;72.90;;;;;;2092225;28;20390;-93
2022/04/23 01:23:16;;;;;;;;;;;11.60;73.20;;;;;;2092884;28;19916;-96
2022/04/23 01:24:17;;;;;;;;;;;11.50;73.00;;;;;;2093891;28;19960;-94
2022/04/23 01:25:18;;;;;;;;;;;11.50;72.90;;;;;;2083650;28;20029;-94
2022/04/23 01:26:28;;;;;;;;;;;11.50;73.30;;;;;;2099278;28;20381;-95
2022/04/23 01:27:29;;;;;;;;;;;11.50;73.10;;;;;;2101000;28;20392;-95
2022/04/23 01:28:30;;;;;;;;;;;11.50;73.10;;;;;;2090290;28;19924;-94
2022/04/23 01:29:31;;;;;;;;;;;11.50;73.30;;;;;;2097606;28;19962;-95
2022/04/23 01:30:37;;;;;;;;;;;11.50;73.40;;;;;;2104312;28;20310;-96
2022/04/23 01:31:38;;;;;;;;;;;11.50;73.60;;;;;;2102203;28;19951;-96
2022/04/23 01:32:38;;;;;;;;;;;11.50;73.40;;;;;;2103165;28;19908;-96
2022/04/23 01:33:39;;;;;;;;;;;11.50;73.40;;;;;;2093135;28;19953;-95
2022/04/23 01:34:40;;;;;;;;;;;11.50;73.30;;;;;;2084635;28;20391;-96
2022/04/23 01:35:40;;;;;;;;;;;11.50;73.40;;;;;;2094559;28;20390;-95
2022/04/23 01:36:41;;;;;;;;;;;11.50;73.50;;;;;;2108592;28;19920;-95
2022/04/23 01:37:43;;;;;;;;;;;11.50;74.10;;;;;;2108802;28;19912;-92
2022/04/23 01:38:44;;;;;;;;;;;11.50;73.70;;;;;;2100637;28;19924;-95
2022/04/23 01:39:45;;;;;;;;;;;11.50;73.70;;;;;;2084507;28;20008;-96
2022/04/23 01:40:46;;;;;;;;;;;11.50;73.80;;;;;;2082764;28;19921;-95
2022/04/23 01:41:47;;;;;;;;;;;11.50;73.50;;;;;;2075377;28;19965;-95
2022/04/23 01:42:47;;;;;;;;;;;11.50;73.50;;;;;;2084063;28;19917;-95
2022/04/23 01:43:48;;;;;;;;;;;11.50;73.70;;;;;;2099420;28;19917;-94
2022/04/23 01:44:50;;;;;;;;;;;11.50;73.60;;;;;;2090284;28;19952;-95
2022/04/23 01:45:51;;;;;;;;;;;11.50;73.70;;;;;;2099772;28;19923;-95
2022/04/23 01:46:51;;;;;;;;;;;11.50;73.50;;;;;;2099960;28;19912;-95
2022/04/23 01:47:52;;;;;;;;;;;11.50;74.00;;;;;;2091592;28;19917;-96
2022/04/23 01:48:52;;;;;;;;;;;11.50;74.00;;;;;;2090956;28;20011;-94
2022/04/23 01:49:53;;;;;;;;;;;11.50;74.10;;;;;;2094097;28;19978;-94
2022/04/23 01:50:55;;;;;;;;;;;11.50;73.90;;;;;;2091925;28;20007;-96
2022/04/23 01:51:55;;;;;;;;;;;11.50;73.90;;;;;;2092885;28;20037;-95
2022/04/23 01:52:56;;;;;;;;;;;11.50;73.90;;;;;;2091441;28;19917;-95
2022/04/23 01:53:57;;;;;;;;;;;11.50;73.90;;;;;;2092392;28;19917;-96
2022/04/23 01:54:57;;;;;;;;;;;11.60;73.80;;;;;;2101015;28;19962;-96
2022/04/23 01:55:58;;;;;;;;;;;11.60;73.80;;;;;;2084211;28;19921;-92
2022/04/23 01:56:59;;;;;;;;;;;11.60;74.10;;;;;;2083813;28;19913;-96
2022/04/23 01:57:59;;;;;;;;;;;11.60;74.00;;;;;;2091428;28;19928;-96
2022/04/23 01:59:00;;;;;;;;;;;11.60;73.90;;;;;;2090724;28;19925;-94
2022/04/23 02:00:01;;;;;;;;;;;11.60;73.90;;;;;;2096426;28;19939;-96
2022/04/23 02:01:02;;;;;;;;;;;11.60;74.30;;;;;;2096388;28;19967;-94
2022/04/23 02:02:03;;;;;;;;;;;11.60;74.30;;;;;;2095527;28;19913;-94
2022/04/23 02:03:04;;;;;;;;;;;11.60;74.50;;;;;;2109443;28;20015;-96
2022/04/23 02:04:08;;;;;;;;;;;11.60;73.90;;;;;;2105419;28;20046;-95
2022/04/23 02:05:09;;;;;;;;;;;11.60;73.80;;;;;;2093582;28;19921;-93
2022/04/23 02:06:10;;;;;;;;;;;11.60;74.20;;;;;;2095153;28;19924;-96
2022/04/23 02:07:11;;;;;;;;;;;11.60;74.10;;;;;;2092712;28;19951;-96
2022/04/23 02:08:15;;;;;;;;;;;11.70;74.50;;;;;;2095175;28;19913;-96
2022/04/23 02:09:17;;;;;;;;;;;11.70;74.30;;;;;;2104727;28;19920;-96
2022/04/23 02:10:18;;;;;;;;;;;11.70;74.40;;;;;;2093071;28;19980;-95
2022/04/23 02:11:18;;;;;;;;;;;11.70;74.20;;;;;;2106396;28;19897;-96
2022/04/23 02:12:19;;;;;;;;;;;11.70;74.30;;;;;;2100349;28;19924;-96
2022/04/23 02:13:20;;;;;;;;;;;11.60;74.00;;;;;;2084552;28;20319;-95
2022/04/23 02:14:20;;;;;;;;;;;11.70;74.10;;;;;;2084354;28;19920;-96
2022/04/23 02:15:21;;;;;;;;;;;11.60;74.10;;;;;;2093238;28;19913;-96
2022/04/23 02:16:21;;;;;;;;;;;11.60;73.90;;;;;;2083548;28;19971;-96
2022/04/23 02:17:32;;;;;;;;;;;11.70;74.50;;;;;;2082567;28;20299;-96
2022/04/23 02:18:34;;;;;;;;;;;11.60;74.00;;;;;;2087031;28;19913;-96
2022/04/23 02:19:35;;;;;;;;;;;11.70;74.00;;;;;;2083801;28;19931;-93
2022/04/23 02:20:36;;;;;;;;;;;11.60;74.20;;;;;;2084336;28;19924;-95
2022/04/23 02:21:37;;;;;;;;;;;11.60;74.20;;;;;;2084221;28;19955;-96
2022/04/23 02:22:38;;;;;;;;;;;11.70;74.70;;;;;;2089334;28;19914;-96
2022/04/23 02:23:39;;;;;;;;;;;11.60;74.20;;;;;;2098818;28;19951;-89
2022/04/23 02:24:40;;;;;;;;;;;11.60;74.50;;;;;;2108804;28;19958;-87
2022/04/23 02:25:42;;;;;;;;;;;11.60;74.20;;;;;;2108285;28;19939;-83
2022/04/23 02:26:45;;;;;;;;;;;11.60;74.20;;;;;;2092613;28;19897;-89
2022/04/23 02:27:47;;;;;;;;;;;11.60;74.60;;;;;;2084342;28;19917;-88
2022/04/23 02:28:48;;;;;;;;;;;11.60;74.80;;;;;;2092739;28;19913;-94
2022/04/23 02:29:49;;;;;;;;;;;11.60;75.00;;;;;;2099548;28;19917;-94
2022/04/23 02:30:49;;;;;;;;;;;11.60;74.60;;;;;;2103960;28;19923;-95
2022/04/23 02:31:50;;;;;;;;;;;11.60;75.20;;;;;;2102518;28;19921;-94
2022/04/23 02:32:50;;;;;;;;;;;11.50;74.50;;;;;;2085230;28;19992;-96
2022/04/23 02:33:51;;;;;;;;;;;11.60;74.80;;;;;;2092929;28;20398;-96
2022/04/23 02:34:51;;;;;;;;;;;11.60;74.70;;;;;;2088265;28;19959;-96
2022/04/23 02:35:52;;;;;;;;;;;11.60;74.50;;;;;;2083007;28;19941;-95
2022/04/23 02:36:53;;;;;;;;;;;11.50;74.70;;;;;;2083511;28;19898;-94
2022/04/23 02:37:56;;;;;;;;;;;11.60;74.70;;;;;;2092005;28;19921;-87
2022/04/23 02:38:58;;;;;;;;;;;11.50;74.90;;;;;;2100226;28;19900;-88
2022/04/23 02:39:59;;;;;;;;;;;11.60;74.70;;;;;;2093902;28;19908;-95
2022/04/23 02:40:59;;;;;;;;;;;11.50;74.90;;;;;;2092968;28;19924;-95
2022/04/23 02:42:00;;;;;;;;;;;11.50;74.70;;;;;;2103860;28;19952;-95
2022/04/23 02:43:03;;;;;;;;;;;11.50;74.70;;;;;;2102463;28;19944;-95
2022/04/23 02:44:03;;;;;;;;;;;11.50;75.00;;;;;;2095165;28;20385;-96
2022/04/23 02:45:05;;;;;;;;;;;11.50;75.10;;;;;;2095601;28;19964;-96
2022/04/23 02:46:06;;;;;;;;;;;11.50;75.20;;;;;;2096367;28;19917;-96
2022/04/23 02:47:06;;;;;;;;;;;11.50;75.10;;;;;;2100358;28;19973;-94
2022/04/23 02:48:07;;;;;;;;;;;11.50;75.30;;;;;;2094911;28;19944;-96
2022/04/23 02:49:09;;;;;;;;;;;11.50;75.10;;;;;;2087280;28;19944;-95
2022/04/23 02:50:10;;;;;;;;;;;11.50;75.30;;;;;;2096733;28;19952;-94
2022/04/23 02:51:15;;;;;;;;;;;11.50;75.20;;;;;;2096096;28;19921;-95
2022/04/23 02:52:16;;;;;;;;;;;11.50;75.10;;;;;;2088755;28;20417;-94
2022/04/23 02:53:16;;;;;;;;;;;11.40;75.20;;;;;;2094145;28;19913;-94
2022/04/23 02:54:18;;;;;;;;;;;11.40;75.10;;;;;;2102851;28;19923;-94
2022/04/23 02:55:19;;;;;;;;;;;11.40;75.40;;;;;;2094024;28;19917;-96
2022/04/23 02:56:20;;;;;;;;;;;11.40;75.30;;;;;;2084136;28;19918;-96
2022/04/23 02:57:20;;;;;;;;;;;11.40;75.40;;;;;;2080940;28;19997;-95
2022/04/23 02:58:21;;;;;;;;;;;11.40;75.50;;;;;;2096726;28;19988;-95
2022/04/23 02:59:23;;;;;;;;;;;11.40;75.30;;;;;;2088420;28;19984;-95
2022/04/23 03:00:24;;;;;;;;;;;11.40;75.60;;;;;;2091253;28;19921;-94
2022/04/23 03:01:28;;;;;;;;;;;11.40;75.70;;;;;;2079409;28;19940;-96
2022/04/23 03:02:29;;;;;;;;;;;11.40;75.60;;;;;;2089731;28;19909;-96
2022/04/23 03:03:30;;;;;;;;;;;11.40;75.60;;;;;;2099151;28;19916;-96
2022/04/23 03:04:31;;;;;;;;;;;11.30;75.70;;;;;;2088863;28;20451;-96
2022/04/23 03:05:33;;;;;;;;;;;11.40;75.60;;;;;;2096857;28;20440;-95
2022/04/23 03:06:34;;;;;;;;;;;11.40;75.80;;;;;;2104940;28;20436;-96
2022/04/23 03:07:35;;;;;;;;;;;11.40;75.60;;;;;;2104516;28;19968;-96
2022/04/23 03:08:37;;;;;;;;;;;11.30;75.50;;;;;;2104546;28;19912;-95
2022/04/23 03:09:38;;;;;;;;;;;11.40;75.70;;;;;;2095762;28;19915;-96
2022/04/23 03:10:41;;;;;;;;;;;11.30;75.50;;;;;;2087808;28;19925;-96
2022/04/23 03:11:48;;;;;;;;;;;11.30;75.40;;;;;;2092987;28;19966;-96
2022/04/23 03:12:49;;;;;;;;;;;11.30;75.40;;;;;;2097010;28;19939;-95
2022/04/23 03:13:50;;;;;;;;;;;11.30;75.50;;;;;;2085657;28;19995;-96
2022/04/23 03:14:51;;;;;;;;;;;11.30;75.80;;;;;;2083202;28;19921;-94
2022/04/23 03:15:52;;;;;;;;;;;11.30;75.70;;;;;;2101015;28;19955;-93
2022/04/23 03:16:53;;;;;;;;;;;11.30;75.80;;;;;;2109126;28;19912;-96
2022/04/23 03:18:10;;;;;;;;;;;11.30;75.60;;;;;;2100675;28;19917;-96
2022/04/23 03:19:10;;;;;;;;;;;11.30;75.70;;;;;;2107772;28;19923;-96
2022/04/23 03:20:12;;;;;;;;;;;11.30;75.70;;;;;;2112494;28;19924;-95
2022/04/23 03:21:13;;;;;;;;;;;11.30;75.80;;;;;;2095425;28;19917;-96
2022/04/23 03:22:14;;;;;;;;;;;11.30;75.60;;;;;;2088766;28;20438;-95
2022/04/23 03:23:14;;;;;;;;;;;11.30;75.70;;;;;;2093257;28;19917;-95
2022/04/23 03:24:15;;;;;;;;;;;11.20;75.80;;;;;;2099574;28;19962;-95
2022/04/23 03:25:15;;;;;;;;;;;11.20;75.80;;;;;;2095836;28;19978;-96
2022/04/23 03:26:16;;;;;;;;;;;11.20;75.70;;;;;;2104300;28;19970;-95
2022/04/23 03:27:17;;;;;;;;;;;11.20;75.60;;;;;;2095794;28;19919;-96
2022/04/23 03:28:18;;;;;;;;;;;11.20;75.70;;;;;;2103713;28;19916;-95
2022/04/23 03:29:20;;;;;;;;;;;11.20;75.80;;;;;;2109717;28;19908;-95
2022/04/23 03:30:20;;;;;;;;;;;11.20;75.60;;;;;;2096745;28;19916;-94
2022/04/23 03:31:21;;;;;;;;;;;11.20;75.60;;;;;;2104108;28;19920;-95
2022/04/23 03:32:21;;;;;;;;;;;11.20;76.00;;;;;;2102476;28;19948;-95
2022/04/23 03:33:22;;;;;;;;;;;11.20;75.90;;;;;;2103629;28;20015;-96
2022/04/23 03:34:22;;;;;;;;;;;11.20;76.20;;;;;;2102219;28;19916;-96
2022/04/23 03:35:23;;;;;;;;;;;11.20;75.90;;;;;;2096169;28;19913;-96
2022/04/23 03:36:23;;;;;;;;;;;11.10;75.70;;;;;;2105050;28;19912;-96
2022/04/23 03:37:25;;;;;;;;;;;11.20;75.80;;;;;;2086032;28;20388;-95
2022/04/23 03:38:26;;;;;;;;;;;11.20;76.00;;;;;;2079662;28;19924;-96
2022/04/23 03:39:27;;;;;;;;;;;11.20;76.30;;;;;;2087759;28;19920;-96
2022/04/23 03:40:27;;;;;;;;;;;11.10;76.40;;;;;;2103072;28;19958;-96
2022/04/23 03:41:28;;;;;;;;;;;11.10;76.60;;;;;;2095588;28;20372;-93
2022/04/23 03:42:28;;;;;;;;;;;11.10;76.70;;;;;;2095507;28;19948;-95
2022/04/23 03:43:30;;;;;;;;;;;11.10;76.30;;;;;;2108073;28;19923;-96
2022/04/23 03:44:31;;;;;;;;;;;11.10;76.10;;;;;;2095430;28;19946;-96
2022/04/23 03:45:33;;;;;;;;;;;11.10;76.40;;;;;;2096569;28;19967;-96
2022/04/23 03:46:34;;;;;;;;;;;11.10;76.30;;;;;;2114393;28;19915;-96
2022/04/23 03:47:35;;;;;;;;;;;11.10;76.20;;;;;;2113472;28;19912;-95
2022/04/23 03:48:36;;;;;;;;;;;11.10;76.40;;;;;;2104279;28;20366;-96
2022/04/23 03:49:36;;;;;;;;;;;11.10;76.50;;;;;;2103898;28;19912;-96
2022/04/23 03:50:37;;;;;;;;;;;11.10;76.50;;;;;;2103441;28;19923;-96
2022/04/23 03:51:38;;;;;;;;;;;11.00;76.40;;;;;;2110306;28;19919;-95
2022/04/23 03:52:39;;;;;;;;;;;11.10;76.40;;;;;;2095296;28;19953;-96
2022/04/23 03:53:39;;;;;;;;;;;11.10;76.40;;;;;;2094682;28;19924;-96
2022/04/23 03:54:40;;;;;;;;;;;11.10;76.40;;;;;;2099641;28;19956;-96
2022/04/23 03:55:41;;;;;;;;;;;11.00;77.40;;;;;;2091014;28;19921;-95
2022/04/23 03:56:41;;;;;;;;;;;11.00;76.60;;;;;;2088407;28;19960;-96
2022/04/23 03:57:48;;;;;;;;;;;11.00;76.70;;;;;;2103121;28;20011;-96
2022/04/23 03:58:49;;;;;;;;;;;11.00;76.60;;;;;;2102580;28;19916;-96
2022/04/23 03:59:49;;;;;;;;;;;11.00;77.00;;;;;;2085258;28;19945;-95
2022/04/23 04:00:50;;;;;;;;;;;10.90;77.10;;;;;;2093882;28;20333;-95
2022/04/23 04:01:55;;;;;;;;;;;11.00;76.80;;;;;;2097069;28;19917;-96
2022/04/23 04:02:56;;;;;;;;;;;11.00;76.80;;;;;;2093243;28;19917;-96
2022/04/23 04:03:56;;;;;;;;;;;11.00;76.90;;;;;;2103397;28;19970;-95
2022/04/23 04:04:57;;;;;;;;;;;10.90;76.80;;;;;;2100891;28;20000;-95
2022/04/23 04:05:57;;;;;;;;;;;10.90;76.80;;;;;;2084716;28;19913;-96
2022/04/23 04:06:59;;;;;;;;;;;10.90;76.70;;;;;;2091015;28;19917;-94
2022/04/23 04:08:00;;;;;;;;;;;10.90;76.90;;;;;;2093472;28;19938;-96
2022/04/23 04:09:02;;;;;;;;;;;10.90;76.90;;;;;;2094390;28;20282;-95
2022/04/23 04:10:03;;;;;;;;;;;10.90;76.80;;;;;;2107718;28;19909;-95
2022/04/23 04:11:03;;;;;;;;;;;10.90;76.90;;;;;;2109377;28;19935;-95
2022/04/23 04:12:06;;;;;;;;;;;10.90;77.00;;;;;;2109790;28;19994;-81
2022/04/23 04:13:07;;;;;;;;;;;10.80;76.70;;;;;;2101395;28;19901;-82
2022/04/23 04:14:08;;;;;;;;;;;10.90;77.00;;;;;;2093344;28;19932;-85
2022/04/23 04:15:15;;;;;;;;;;;10.80;77.20;;;;;;2106426;28;19935;-95
2022/04/23 04:16:16;;;;;;;;;;;10.80;77.10;;;;;;2116789;28;19950;-87
2022/04/23 04:17:17;;;;;;;;;;;10.80;77.10;;;;;;2110134;28;19908;-83
2022/04/23 04:18:17;;;;;;;;;;;10.80;77.10;;;;;;2109563;28;19958;-95
2022/04/23 04:19:18;;;;;;;;;;;10.80;77.00;;;;;;2098819;28;19940;-95
2022/04/23 04:20:21;;;;;;;;;;;10.80;77.20;;;;;;2106995;28;20342;-96
2022/04/23 04:21:21;;;;;;;;;;;10.80;77.10;;;;;;2104932;28;19912;-96
2022/04/23 04:22:22;;;;;;;;;;;10.80;77.10;;;;;;2095072;28;19956;-94
2022/04/23 04:23:24;;;;;;;;;;;10.80;77.70;;;;;;2105342;28;19916;-96
2022/04/23 04:24:26;;;;;;;;;;;10.80;77.70;;;;;;2117042;28;19960;-96
2022/04/23 04:25:27;;;;;;;;;;;10.80;77.30;;;;;;2111324;28;19908;-88
2022/04/23 04:26:27;;;;;;;;;;;10.80;77.40;;;;;;2093206;28;19923;-87
2022/04/23 04:27:28;;;;;;;;;;;10.80;77.40;;;;;;2081755;28;19914;-95
2022/04/23 04:28:29;;;;;;;;;;;10.80;77.30;;;;;;2094501;28;20010;-96
2022/04/23 04:29:31;;;;;;;;;;;10.80;77.40;;;;;;2102692;28;19915;-96
2022/04/23 04:31:46;;;;;;;;;;;10.70;77.10;;;;;;2102462;28;20015;-96
2022/04/23 04:31:52;;;;;;;;;;;10.80;77.60;;;;;;2101094;28;19913;-95
2022/04/23 04:32:53;;;;;;;;;;;10.80;78.50;;;;;;2102579;28;19980;-96
2022/04/23 04:33:54;;;;;;;;;;;10.70;77.80;;;;;;2102802;28;19993;-96
2022/04/23 04:34:55;;;;;;;;;;;10.70;77.90;;;;;;2098221;28;19999;-95
2022/04/23 04:35:55;;;;;;;;;;;10.70;77.80;;;;;;2092223;28;19917;-96
2022/04/23 04:37:03;;;;;;;;;;;10.70;78.00;;;;;;2096340;28;19913;-96
2022/04/23 04:38:04;;;;;;;;;;;10.70;77.70;;;;;;2103552;28;19916;-95
2022/04/23 04:39:04;;;;;;;;;;;10.70;77.70;;;;;;2094481;28;20354;-96
2022/04/23 04:40:05;;;;;;;;;;;10.70;78.00;;;;;;2077359;28;19996;-96
2022/04/23 04:41:06;;;;;;;;;;;10.60;78.00;;;;;;2085475;28;20391;-95
2022/04/23 04:42:07;;;;;;;;;;;10.70;78.60;;;;;;2103394;28;19934;-96
2022/04/23 04:43:07;;;;;;;;;;;10.60;78.50;;;;;;2096366;28;19928;-96
2022/04/23 04:44:08;;;;;;;;;;;10.60;78.30;;;;;;2093487;28;19993;-96
2022/04/23 04:45:09;;;;;;;;;;;10.60;78.10;;;;;;2096390;28;19952;-96
2022/04/23 04:46:09;;;;;;;;;;;10.60;78.10;;;;;;2097992;28;19917;-96
2022/04/23 04:47:11;;;;;;;;;;;10.60;78.30;;;;;;2086624;28;19924;-96
2022/04/23 04:48:11;;;;;;;;;;;10.60;78.10;;;;;;2091396;28;20334;-95
2022/04/23 04:49:12;;;;;;;;;;;10.60;78.10;;;;;;2085756;28;19913;-95
2022/04/23 04:50:12;;;;;;;;;;;10.60;78.00;;;;;;2094020;28;19980;-95
2022/04/23 04:51:12;;;;;;;;;;;10.60;78.20;;;;;;2111233;28;19913;-96
2022/04/23 04:52:13;;;;;;;;;;;10.60;78.20;;;;;;2102874;28;19916;-95
2022/04/23 04:53:13;;;;;;;;;;;10.60;78.30;;;;;;2094428;28;20009;-94
2022/04/23 04:54:14;;;;;;;;;;;10.60;78.40;;;;;;2097891;28;19947;-96
2022/04/23 04:55:15;;;;;;;;;;;10.60;78.10;;;;;;2096709;28;19964;-95
2022/04/23 04:56:15;;;;;;;;;;;10.60;78.40;;;;;;2084387;28;19924;-95
2022/04/23 04:57:16;;;;;;;;;;;10.60;78.40;;;;;;2092708;28;19987;-96
2022/04/23 04:58:16;;;;;;;;;;;10.60;78.30;;;;;;2110748;28;20378;-96
2022/04/23 04:59:17;;;;;;;;;;;10.60;78.30;;;;;;2111239;28;19994;-95
2022/04/23 05:00:20;;;;;;;;;;;10.60;78.40;;;;;;2107356;28;19939;-94
2022/04/23 05:01:21;;;;;;;;;;;10.60;78.50;;;;;;2103860;28;19913;-95
2022/04/23 05:02:21;;;;;;;;;;;10.60;78.50;;;;;;2093777;28;19939;-96
2022/04/23 05:03:22;;;;;;;;;;;10.60;79.00;;;;;;2084450;28;19917;-96
2022/04/23 05:04:22;;;;;;;;;;;10.60;78.50;;;;;;2084872;28;19917;-96
2022/04/23 05:05:23;;;;;;;;;;;10.60;78.40;;;;;;2083362;28;19921;-95
2022/04/23 05:06:23;;;;;;;;;;;10.60;78.50;;;;;;2093479;28;19916;-95
2022/04/23 05:07:24;;;;;;;;;;;10.60;78.60;;;;;;2106619;28;20317;-95
2022/04/23 05:08:24;;;;;;;;;;;10.60;78.40;;;;;;2098913;28;20428;-95
2022/04/23 05:09:25;;;;;;;;;;;10.60;78.40;;;;;;2094033;28;20013;-95
2022/04/23 05:10:25;;;;;;;;;;;10.60;78.40;;;;;;2093479;28;19913;-94
2022/04/23 05:11:26;;;;;;;;;;;10.60;78.30;;;;;;2102210;28;19913;-96
2022/04/23 05:12:26;;;;;;;;;;;10.60;78.40;;;;;;2093172;28;19979;-96
2022/04/23 05:13:27;;;;;;;;;;;10.60;78.40;;;;;;2100214;28;19913;-96
2022/04/23 05:14:27;;;;;;;;;;;10.60;78.30;;;;;;2102775;28;19912;-96
2022/04/23 05:15:28;;;;;;;;;;;10.60;78.20;;;;;;2110614;28;19924;-96
2022/04/23 05:16:28;;;;;;;;;;;10.60;78.50;;;;;;2109740;28;19912;-94
2022/04/23 05:17:29;;;;;;;;;;;10.60;78.30;;;;;;2109379;28;19963;-95
2022/04/23 05:18:30;;;;;;;;;;;10.60;78.80;;;;;;2106919;28;19917;-94
2022/04/23 05:19:32;;;;;;;;;;;10.70;78.50;;;;;;2091683;28;19917;-92
2022/04/23 05:20:32;;;;;;;;;;;10.70;78.80;;;;;;2091543;28;19984;-96
2022/04/23 05:21:33;;;;;;;;;;;10.70;78.60;;;;;;2093435;28;20418;-94
2022/04/23 05:22:33;;;;;;;;;;;10.70;78.20;;;;;;2093336;28;19913;-95
2022/04/23 05:23:34;;;;;;;;;;;10.70;78.30;;;;;;2097287;28;19931;-96
2022/04/23 05:24:36;;;;;;;;;;;10.70;78.60;;;;;;2093991;28;20019;-96
2022/04/23 05:25:36;;;;;;;;;;;10.80;79.40;;;;;;2076120;28;19925;-96
2022/04/23 05:26:37;;;;;;;;;;;10.80;78.90;;;;;;2075186;28;20093;-95
2022/04/23 05:27:37;;;;;;;;;;;10.80;78.60;;;;;;2086248;28;19913;-96
2022/04/23 05:28:40;;;;;;;;;;;10.80;78.70;;;;;;2095029;28;19982;-93
2022/04/23 05:29:41;;;;;;;;;;;10.80;78.70;;;;;;2097723;28;19928;-94
2022/04/23 05:30:42;;;;;;;;;;;10.90;78.70;;;;;;2098869;28;19916;-95
2022/04/23 05:31:43;;;;;;;;;;;10.90;78.70;;;;;;2093629;28;19908;-96
2022/04/23 05:32:43;;;;;;;;;;;10.90;78.70;;;;;;2099717;28;20058;-92
2022/04/23 05:33:44;;;;;;;;;;;10.90;78.50;;;;;;2088113;28;19976;-93
2022/04/23 05:34:45;;;;;;;;;;;10.90;78.60;;;;;;2097075;28;20017;-93
2022/04/23 05:35:46;;;;;;;;;;;11.00;78.50;;;;;;2101342;28;19916;-94
2022/04/23 05:36:46;;;;;;;;;;;11.00;78.80;;;;;;2101336;28;19967;-92
2022/04/23 05:37:47;;;;;;;;;;;11.00;78.70;;;;;;2097189;28;19916;-93
2022/04/23 05:38:47;;;;;;;;;;;11.00;78.70;;;;;;2080367;28;19921;-94
2022/04/23 05:39:48;;;;;;;;;;;11.00;78.30;;;;;;2087838;28;20009;-93
2022/04/23 05:40:48;;;;;;;;;;;11.00;78.20;;;;;;2094750;28;19920;-93
2022/04/23 05:41:49;;;;;;;;;;;11.00;78.80;;;;;;2097435;28;19964;-93
2022/04/23 05:42:49;;;;;;;;;;;11.00;78.40;;;;;;2090453;28;19928;-93
2022/04/23 05:43:50;;;;;;;;;;;11.10;78.40;;;;;;2078849;28;19960;-92
2022/04/23 05:44:50;;;;;;;;;;;11.10;78.40;;;;;;2081025;28;19921;-92
2022/04/23 05:45:51;;;;;;;;;;;11.00;78.20;;;;;;2096554;28;19921;-93
2022/04/23 05:46:52;;;;;;;;;;;11.00;78.60;;;;;;2094436;28;19917;-93
2022/04/23 05:47:53;;;;;;;;;;;11.00;78.80;;;;;;2096610;28;20314;-94
2022/04/23 05:48:53;;;;;;;;;;;11.00;78.70;;;;;;2082586;28;19969;-92
2022/04/23 05:49:54;;;;;;;;;;;11.00;78.70;;;;;;2079476;28;19917;-93
2022/04/23 05:50:54;;;;;;;;;;;11.00;78.80;;;;;;2090644;28;19917;-90
2022/04/23 05:51:55;;;;;;;;;;;11.00;78.60;;;;;;2090282;28;19913;-91
2022/04/23 05:52:56;;;;;;;;;;;11.00;78.80;;;;;;2081243;28;19970;-94
2022/04/23 05:53:56;;;;;;;;;;;11.00;78.60;;;;;;2080930;28;20360;-92
2022/04/23 05:54:57;;;;;;;;;;;11.00;79.00;;;;;;2080656;28;19925;-91
2022/04/23 05:55:57;;;;;;;;;;;10.90;78.70;;;;;;2089781;28;19945;-93